Time;durP1;ratioP1;P1;durP2;ratioP2;P2;SDS_P1;SDS_P2;PMS_P1;PMS_P2;Temp;Humidity;BMP_temperature;BMP_pressure;BME280_temperature;BME280_humidity;BME280_pressure;Samples;Min_cycle;Max_cycle;Signal;HPM_P1;HPM_P2
2021/01/27 00:01:40;;;;;;;15.00;7.73;;;;;;;0.50;72.34;93542.66;5091587;28;20166;-74
2021/01/27 00:04:06;;;;;;;15.00;8.33;;;;;;;0.63;72.94;93533.06;5092025;28;20174;-75
2021/01/27 00:06:31;;;;;;;16.13;8.60;;;;;;;0.68;73.19;93526.88;5091793;28;20747;-75
2021/01/27 00:08:57;;;;;;;15.27;7.67;;;;;;;0.60;71.88;93532.91;5092182;28;20656;-74
2021/01/27 00:11:22;;;;;;;12.13;7.80;;;;;;;0.55;72.92;93523.34;5091618;28;20175;-74
2021/01/27 00:13:48;;;;;;;15.37;8.13;;;;;;;0.55;72.89;93533.06;5091845;28;20189;-75
2021/01/27 00:16:13;;;;;;;13.53;8.57;;;;;;;0.86;72.49;93533.56;5091074;28;20223;-74
2021/01/27 00:18:39;;;;;;;13.37;8.43;;;;;;;0.87;71.90;93537.75;5091847;28;20257;-74
2021/01/27 00:21:04;;;;;;;13.47;7.90;;;;;;;0.53;72.49;93534.16;5091866;28;20182;-75
2021/01/27 00:23:30;;;;;;;15.20;8.10;;;;;;;0.54;73.14;93521.81;5091973;28;20185;-76
2021/01/27 00:25:55;;;;;;;10.77;7.30;;;;;;;0.63;73.20;93540.94;5092012;28;20167;-75
2021/01/27 00:28:21;;;;;;;15.17;8.53;;;;;;;0.78;72.47;93543.03;5092028;28;20591;-75
2021/01/27 00:30:46;;;;;;;12.60;8.00;;;;;;;0.84;72.36;93540.22;5091865;28;20177;-75
2021/01/27 00:33:14;;;;;;;16.10;8.80;;;;;;;0.73;71.97;93545.06;5073093;28;20214;-75
2021/01/27 00:35:42;;;;;;;12.00;7.70;;;;;;;0.97;71.27;93550.53;5091753;28;20229;-75
2021/01/27 00:38:17;;;;;;;12.05;7.30;;;;;;;1.03;71.05;93544.00;5090454;28;20725;-75
2021/01/27 00:40:43;;;;;;;15.77;7.85;;;;;;;0.86;72.31;93540.69;5092622;28;20170;-75
2021/01/27 00:43:08;;;;;;;15.03;7.93;;;;;;;0.68;71.84;93532.13;5091671;28;20166;-75
2021/01/27 00:45:34;;;;;;;11.80;7.87;;;;;;;0.79;72.30;93538.56;5091737;28;20171;-75
2021/01/27 00:47:59;;;;;;;14.43;7.87;;;;;;;0.96;71.29;93541.09;5091490;28;20170;-75
2021/01/27 00:50:25;;;;;;;15.40;8.17;;;;;;;0.87;71.81;93539.59;5091691;28;20220;-75
2021/01/27 00:52:51;;;;;;;16.90;8.90;;;;;;;0.95;72.02;93536.16;5091896;28;20678;-75
2021/01/27 00:55:25;;;;;;;15.23;8.10;;;;;;;0.90;71.73;93523.19;5091492;28;20201;-76
2021/01/27 00:57:50;;;;;;;11.77;7.68;;;;;;;0.89;72.08;93525.03;5092127;28;20186;-75
2021/01/27 01:00:26;;;;;;;16.13;8.63;;;;;;;0.96;71.12;93521.94;5091199;28;20173;-75
2021/01/27 01:02:52;;;;;;;15.23;7.90;;;;;;;0.60;72.62;93531.03;5091762;28;20170;-75
2021/01/27 01:05:20;;;;;;;11.53;8.07;;;;;;;0.90;72.14;93536.31;5091489;28;20175;-75
2021/01/27 01:07:47;;;;;;;14.10;8.30;;;;;;;0.75;71.93;93529.75;5091744;28;20174;-75
2021/01/27 01:10:32;;;;;;;12.43;7.70;;;;;;;0.78;72.61;93531.75;5091702;28;20170;-75
2021/01/27 01:12:58;;;;;;;14.40;8.60;;;;;;;0.74;72.68;93531.63;5091646;28;20174;-76
2021/01/27 01:15:24;;;;;;;17.73;8.63;;;;;;;0.99;71.68;93537.06;5091846;28;20214;-75
2021/01/27 01:17:50;;;;;;;16.98;8.65;;;;;;;1.04;71.32;93545.53;5091682;28;20173;-75
2021/01/27 01:20:15;;;;;;;12.23;8.20;;;;;;;0.94;71.90;93540.63;5091526;28;20166;-75
2021/01/27 01:22:42;;;;;;;16.27;9.00;;;;;;;0.91;71.97;93535.25;5091720;28;20162;-75
2021/01/27 01:25:08;;;;;;;14.57;8.75;;;;;;;0.84;71.90;93540.22;5091505;28;20556;-75
2021/01/27 01:27:34;;;;;;;15.00;8.98;;;;;;;0.69;72.79;93531.03;5092452;28;20185;-75
2021/01/27 01:29:59;;;;;;;13.93;8.43;;;;;;;0.76;72.40;93528.66;5095533;28;20170;-75
2021/01/27 01:32:25;;;;;;;14.53;8.97;;;;;;;0.68;72.71;93522.38;5095325;28;20170;-75
2021/01/27 01:34:50;;;;;;;17.07;8.63;;;;;;;0.61;72.92;93522.06;5094421;28;20202;-75
2021/01/27 01:37:16;;;;;;;14.27;8.03;;;;;;;0.52;72.13;93509.00;5094473;28;20174;-74
2021/01/27 01:39:41;;;;;;;17.13;8.73;;;;;;;0.63;73.16;93509.41;5094289;28;20316;-74
2021/01/27 01:42:07;;;;;;;13.10;7.63;;;;;;;0.75;71.72;93490.34;5094277;28;20182;-75
2021/01/27 01:44:32;;;;;;;12.97;7.10;;;;;;;0.87;71.68;93497.56;5094538;28;20209;-74
2021/01/27 01:46:58;;;;;;;12.80;7.97;;;;;;;1.12;70.82;93509.00;5094286;28;20193;-74
2021/01/27 01:49:23;;;;;;;14.03;7.70;;;;;;;0.86;72.02;93506.53;5094326;28;20175;-73
2021/01/27 01:51:55;;;;;;;13.93;8.40;;;;;;;0.69;72.60;93510.78;5076072;28;20205;-74
2021/01/27 01:54:27;;;;;;;12.10;7.13;;;;;;;0.62;72.01;93505.25;5076058;28;20261;-74
2021/01/27 01:56:55;;;;;;;13.93;8.20;;;;;;;0.49;73.02;93493.84;5093971;28;20205;-74
2021/01/27 01:59:20;;;;;;;13.20;7.68;;;;;;;0.70;73.31;93499.19;5093002;28;20166;-74
2021/01/27 02:01:47;;;;;;;16.10;8.90;;;;;;;0.71;72.91;93497.31;5092848;28;20175;-74
2021/01/27 02:04:13;;;;;;;14.65;7.97;;;;;;;0.92;72.40;93500.00;5093096;28;20642;-75
2021/01/27 02:06:38;;;;;;;11.17;7.00;;;;;;;0.89;73.18;93503.25;5075871;28;20255;-75
2021/01/27 02:09:04;;;;;;;13.10;7.70;;;;;;;0.94;72.33;93508.34;5094031;28;20174;-75
2021/01/27 02:11:50;;;;;;;13.05;7.65;;;;;;;1.01;71.96;93503.34;5094168;28;20181;-75
2021/01/27 02:14:18;;;;;;;13.88;7.97;;;;;;;0.97;72.11;93494.56;5075958;28;20614;-74
2021/01/27 02:16:45;;;;;;;12.60;7.05;;;;;;;0.83;72.49;93496.63;5075428;28;20170;-74
2021/01/27 02:19:25;;;;;;;14.45;8.52;;;;;;;0.91;72.49;93498.47;5075955;28;20662;-74
2021/01/27 02:22:15;;;;;;;12.43;7.78;;;;;;;0.86;72.94;93512.56;5093533;28;20170;-74
2021/01/27 02:24:49;;;;;;;10.30;7.85;;;;;;;0.88;72.62;93504.34;5092522;28;20189;-78
2021/01/27 02:27:51;;;;;;;10.50;7.22;;;;;;;0.66;73.06;93503.50;5076096;28;20261;-78
2021/01/27 02:30:38;;;;;;;12.18;6.88;;;;;;;0.87;72.97;93500.94;5034918;28;20672;-78
2021/01/27 02:33:29;;;;;;;15.90;7.25;;;;;;;0.92;72.43;93507.88;5094598;28;20166;-78
2021/01/27 02:36:24;;;;;;;12.73;8.05;;;;;;;0.86;72.82;93509.16;5094954;28;20234;-77
2021/01/27 02:38:56;;;;;;;9.85;7.00;;;;;;;0.96;72.08;93508.81;5091388;28;20229;-77
2021/01/27 02:41:42;;;;;;;11.85;7.50;;;;;;;0.96;72.28;93514.81;5076150;28;20261;-77
2021/01/27 02:44:11;;;;;;;11.50;7.38;;;;;;;0.97;72.60;93520.84;5075819;28;20285;-78
2021/01/27 02:46:47;;;;;;;12.43;7.47;;;;;;;0.89;72.64;93522.41;5093449;28;20666;-78
2021/01/27 02:49:32;;;;;;;11.07;7.07;;;;;;;0.81;73.52;93530.34;5094153;28;20172;-79
2021/01/27 02:52:07;;;;;;;11.88;7.10;;;;;;;0.98;72.99;93540.78;5093832;28;20174;-78
2021/01/27 02:54:37;;;;;;;10.82;7.50;;;;;;;0.99;72.58;93534.44;5076251;28;20170;-77
2021/01/27 02:57:08;;;;;;;10.52;6.40;;;;;;;0.90;72.82;93534.50;5076224;28;20194;-78
2021/01/27 02:59:47;;;;;;;12.32;7.10;;;;;;;0.99;72.59;93544.94;5076037;28;20316;-79
2021/01/27 03:02:22;;;;;;;9.90;6.40;;;;;;;0.91;72.60;93530.00;5092716;28;20232;-78
2021/01/27 03:04:54;;;;;;;13.45;7.35;;;;;;;0.91;72.81;93546.53;5094247;28;20698;-78
2021/01/27 03:07:19;;;;;;;13.10;7.18;;;;;;;0.99;72.56;93532.56;5073750;28;20226;-78
2021/01/27 03:09:47;;;;;;;12.83;7.80;;;;;;;0.90;72.82;93542.38;5076053;28;20186;-78
2021/01/27 03:12:12;;;;;;;12.23;6.90;;;;;;;0.82;73.33;93545.03;5093442;28;20236;-78
2021/01/27 03:14:38;;;;;;;12.00;7.00;;;;;;;0.89;73.51;93548.69;5093276;28;20205;-78
2021/01/27 03:17:07;;;;;;;11.87;7.10;;;;;;;1.06;73.17;93551.25;5093175;28;20228;-78
2021/01/27 03:19:38;;;;;;;11.40;6.63;;;;;;;1.13;72.56;93555.25;5075372;28;20181;-78
2021/01/27 03:22:38;;;;;;;11.88;7.10;;;;;;;1.18;72.71;93555.84;5093285;28;20171;-79
2021/01/27 03:25:23;;;;;;;11.00;6.78;;;;;;;1.00;72.50;93554.38;5066832;28;20296;-79
2021/01/27 03:28:11;;;;;;;13.07;6.82;;;;;;;1.08;73.27;93566.72;5093889;28;20166;-78
2021/01/27 03:30:37;;;;;;;10.35;6.18;;;;;;;0.82;73.29;93553.69;5091546;28;20201;-78
2021/01/27 03:33:15;;;;;;;10.97;6.60;;;;;;;0.98;73.18;93562.59;5093316;28;20546;-77
2021/01/27 03:36:00;;;;;;;14.73;7.20;;;;;;;1.06;73.31;93561.00;5092758;28;20205;-78
2021/01/27 03:38:38;;;;;;;10.27;6.50;;;;;;;1.05;73.45;93564.72;5058162;28;20284;-78
2021/01/27 03:41:23;;;;;;;13.82;7.35;;;;;;;0.96;73.04;93567.41;5075260;28;20169;-78
2021/01/27 03:44:06;;;;;;;9.45;6.53;;;;;;;1.01;73.32;93575.09;5074458;28;20196;-78
2021/01/27 03:46:53;;;;;;;12.82;6.70;;;;;;;1.11;73.24;93579.22;5075071;28;20646;-77
2021/01/27 03:49:35;;;;;;;11.65;7.30;;;;;;;0.87;74.22;93573.75;5092556;28;20170;-77
2021/01/27 03:52:14;;;;;;;13.13;7.50;;;;;;;0.96;73.91;93571.88;5074438;28;20178;-77
2021/01/27 03:54:43;;;;;;;12.25;7.72;;;;;;;1.05;73.86;93585.75;5074730;28;20198;-78
2021/01/27 03:57:38;;;;;;;11.20;6.80;;;;;;;0.92;73.01;93563.84;5074874;28;20266;-78
2021/01/27 04:00:08;;;;;;;11.52;6.50;;;;;;;1.00;73.37;93580.66;5087840;28;20283;-77
2021/01/27 04:02:34;;;;;;;11.45;6.68;;;;;;;1.06;72.95;93585.41;5074531;28;20242;-77
2021/01/27 04:04:59;;;;;;;10.57;6.30;;;;;;;0.99;73.11;93576.50;5092735;28;20255;-77
2021/01/27 04:07:25;;;;;;;9.30;5.97;;;;;;;1.04;72.88;93589.47;5092469;28;20162;-77
2021/01/27 04:09:50;;;;;;;10.70;6.93;;;;;;;0.93;73.70;93589.03;5074663;28;20229;-77
2021/01/27 04:12:16;;;;;;;10.90;6.60;;;;;;;0.89;74.17;93590.75;5092771;28;20162;-78
2021/01/27 04:14:41;;;;;;;13.27;8.03;;;;;;;1.03;73.28;93580.81;5093711;28;20229;-77
2021/01/27 04:17:27;;;;;;;9.77;6.03;;;;;;;0.97;73.56;93582.06;5076184;28;20272;-78
2021/01/27 04:19:53;;;;;;;10.82;7.10;;;;;;;0.93;73.30;93583.78;5091226;28;20547;-78
2021/01/27 04:22:19;;;;;;;14.03;7.67;;;;;;;0.89;73.26;93576.84;5092206;28;20181;-79
2021/01/27 04:24:45;;;;;;;12.23;7.38;;;;;;;0.85;73.02;93589.09;5092174;28;20170;-78
2021/01/27 04:27:10;;;;;;;10.33;6.77;;;;;;;0.81;72.66;93601.31;5092369;28;20655;-77
2021/01/27 04:29:36;;;;;;;9.10;6.23;;;;;;;0.92;73.70;93599.88;5091192;28;20652;-78
2021/01/27 04:32:01;;;;;;;12.07;7.13;;;;;;;0.94;73.19;93597.69;5092442;28;20681;-77
2021/01/27 04:34:27;;;;;;;11.57;7.07;;;;;;;1.06;72.62;93603.81;5091704;28;20542;-79
2021/01/27 04:36:52;;;;;;;10.53;6.73;;;;;;;0.87;73.30;93592.16;5092182;28;20183;-78
2021/01/27 04:39:18;;;;;;;12.93;7.13;;;;;;;0.99;72.41;93581.75;5091653;28;20237;-78
2021/01/27 04:41:43;;;;;;;11.53;6.80;;;;;;;0.86;72.19;93580.88;5092176;28;20167;-78
2021/01/27 04:44:09;;;;;;;10.50;6.30;;;;;;;0.89;73.06;93589.97;5091689;28;20261;-78
2021/01/27 04:46:38;;;;;;;11.60;7.13;;;;;;;0.93;72.67;93599.56;5074109;28;20181;-77
2021/01/27 04:49:10;;;;;;;14.13;7.28;;;;;;;1.04;72.49;93599.97;5073949;28;20182;-77
2021/01/27 04:51:37;;;;;;;10.45;6.97;;;;;;;0.84;72.04;93603.28;5073854;28;20574;-78
2021/01/27 04:54:17;;;;;;;13.48;7.22;;;;;;;0.86;72.44;93603.75;5073709;28;20249;-77
2021/01/27 04:56:51;;;;;;;13.88;6.75;;;;;;;0.92;72.47;93608.53;5091788;28;20251;-77
2021/01/27 04:59:55;;;;;;;11.38;7.55;;;;;;;0.88;72.51;93615.50;5091268;28;20252;-77
2021/01/27 05:02:44;;;;;;;10.77;6.57;;;;;;;0.74;72.55;93599.94;5087324;28;20182;-78
2021/01/27 05:05:14;;;;;;;11.25;6.35;;;;;;;0.75;72.97;93611.22;5095143;28;20257;-77
2021/01/27 05:07:45;;;;;;;9.60;6.57;;;;;;;0.62;72.72;93612.16;5095221;28;20166;-77
2021/01/27 05:10:16;;;;;;;11.23;7.05;;;;;;;0.45;73.74;93605.09;5095578;28;20166;-77
2021/01/27 05:12:50;;;;;;;12.20;7.07;;;;;;;0.59;73.43;93613.56;5077180;28;20174;-76
2021/01/27 05:15:16;;;;;;;10.93;7.32;;;;;;;0.59;72.97;93618.81;5094131;28;20227;-74
2021/01/27 05:17:43;;;;;;;12.33;7.20;;;;;;;0.47;72.60;93613.44;5076723;28;20265;-75
2021/01/27 05:20:13;;;;;;;8.82;6.43;;;;;;;0.58;73.43;93612.03;5094340;28;20174;-75
2021/01/27 05:22:38;;;;;;;10.35;7.28;;;;;;;0.52;72.25;93600.16;5095208;28;20269;-74
2021/01/27 05:25:12;;;;;;;11.13;7.20;;;;;;;0.51;72.94;93617.78;5076643;28;20571;-73
2021/01/27 05:27:37;;;;;;;11.90;7.10;;;;;;;0.38;72.47;93626.56;5076420;28;20280;-74
2021/01/27 05:30:06;;;;;;;15.70;7.53;;;;;;;0.30;73.03;93634.47;5093582;28;20643;-73
2021/01/27 05:32:49;;;;;;;10.88;7.00;;;;;;;0.40;72.35;93634.94;5093579;28;20186;-75
2021/01/27 05:35:31;;;;;;;11.88;7.43;;;;;;;0.51;71.89;93645.88;5094645;28;20240;-75
2021/01/27 05:37:58;;;;;;;12.55;7.03;;;;;;;0.38;72.23;93649.44;5094677;28;20218;-74
2021/01/27 05:40:36;;;;;;;10.73;6.68;;;;;;;0.55;71.74;93654.66;5093598;28;20654;-74
2021/01/27 05:43:22;;;;;;;9.25;6.53;;;;;;;0.56;70.96;93658.84;5076346;28;20181;-74
2021/01/27 05:45:48;;;;;;;14.90;7.57;;;;;;;0.38;71.28;93655.47;5093392;28;20182;-75
2021/01/27 05:48:21;;;;;;;10.88;6.60;;;;;;;0.58;71.01;93655.91;5076375;28;20166;-75
2021/01/27 05:50:46;;;;;;;13.02;7.75;;;;;;;0.61;71.45;93658.69;5094647;28;20214;-75
2021/01/27 05:53:17;;;;;;;10.13;7.27;;;;;;;0.61;70.80;93658.69;5093303;28;20200;-75
2021/01/27 05:56:21;;;;;;;13.05;7.72;;;;;;;0.55;71.00;93659.91;5075996;28;20229;-75
2021/01/27 05:58:49;;;;;;;10.57;6.68;;;;;;;0.56;70.93;93661.47;5093074;28;20182;-74
2021/01/27 06:01:43;;;;;;;11.70;6.60;;;;;;;0.57;70.31;93662.25;5094080;28;20174;-75
2021/01/27 06:04:11;;;;;;;11.35;7.15;;;;;;;0.41;70.51;93659.34;5094322;28;20174;-75
2021/01/27 06:06:40;;;;;;;13.27;7.25;;;;;;;0.41;70.29;93659.34;5093978;28;20259;-74
2021/01/27 06:09:06;;;;;;;10.10;6.47;;;;;;;0.21;69.88;93666.75;5093317;28;20175;-75
2021/01/27 06:11:31;;;;;;;9.27;6.87;;;;;;;0.31;69.86;93657.03;5094238;28;20182;-76
2021/01/27 06:14:09;;;;;;;10.77;6.60;;;;;;;0.19;70.14;93666.28;5074680;28;20618;-73
2021/01/27 06:16:45;;;;;;;11.45;7.00;;;;;;;0.29;69.83;93667.06;5093610;28;20210;-73
2021/01/27 06:19:13;;;;;;;10.27;6.90;;;;;;;0.33;69.32;93657.47;5093996;28;20174;-74
2021/01/27 06:22:09;;;;;;;8.57;6.22;;;;;;;0.26;70.79;93663.97;5093465;28;20182;-75
2021/01/27 06:24:38;;;;;;;11.90;6.30;;;;;;;0.25;69.95;93664.28;5093572;28;20178;-73
2021/01/27 06:27:22;;;;;;;12.88;7.35;;;;;;;0.07;70.14;93663.50;5092482;28;20173;-78
2021/01/27 06:30:12;;;;;;;12.82;7.30;;;;;;;0.29;70.13;93665.22;5092495;28;20190;-75
2021/01/27 06:32:53;;;;;;;10.82;6.85;;;;;;;0.36;68.67;93673.38;5093771;28;20181;-75
2021/01/27 06:35:56;;;;;;;9.73;6.05;;;;;;;0.33;68.87;93667.97;5093443;28;20193;-76
2021/01/27 06:38:54;;;;;;;13.85;6.57;;;;;;;0.27;68.60;93667.34;5092957;28;20233;-73
2021/01/27 06:41:34;;;;;;;12.70;7.15;;;;;;;0.44;69.47;93650.81;5071440;28;20252;-74
2021/01/27 06:44:14;;;;;;;12.48;7.43;;;;;;;0.17;69.25;93650.09;5093728;28;20170;-74
2021/01/27 06:46:51;;;;;;;13.05;7.53;;;;;;;0.25;69.23;93640.66;5093017;28;20270;-74
2021/01/27 06:49:38;;;;;;;11.57;6.78;;;;;;;0.49;68.79;93656.69;5093232;28;20651;-74
2021/01/27 06:52:06;;;;;;;13.50;7.45;;;;;;;0.46;68.90;93640.78;5093186;28;20174;-74
2021/01/27 06:54:35;;;;;;;11.95;6.75;;;;;;;0.42;68.53;93653.00;5090541;28;20264;-74
2021/01/27 06:57:19;;;;;;;9.07;6.60;;;;;;;0.42;69.36;93655.63;5109363;28;20531;-74
2021/01/27 06:59:59;;;;;;;9.98;6.25;;;;;;;0.53;68.14;93654.22;5110521;28;20276;-74
2021/01/27 07:02:57;;;;;;;13.93;7.70;;;;;;;0.40;67.85;93645.44;5113072;28;20646;-74
2021/01/27 07:05:37;;;;;;;13.38;7.20;;;;;;;0.45;69.16;93650.53;5030579;28;20275;-74
2021/01/27 07:08:23;;;;;;;12.73;6.63;;;;;;;0.59;68.21;93660.09;5013748;28;20210;-76
2021/01/27 07:11:13;;;;;;;11.05;6.25;;;;;;;0.38;68.72;93665.97;5016583;28;20199;-74
2021/01/27 07:14:02;;;;;;;14.20;7.55;;;;;;;0.61;67.76;93673.66;4971384;28;20602;-75
2021/01/27 07:16:37;;;;;;;12.32;7.15;;;;;;;0.41;66.65;93670.59;4913604;29;20224;-75
2021/01/27 07:19:33;;;;;;;12.98;7.55;;;;;;;0.48;67.37;93673.53;4914468;29;20525;-74
2021/01/27 07:22:18;;;;;;;10.98;6.45;;;;;;;0.28;68.63;93676.78;4909337;29;20605;-74
2021/01/27 07:24:56;;;;;;;11.00;7.43;;;;;;;0.36;68.61;93676.00;4891065;29;20189;-75
2021/01/27 07:27:22;;;;;;;12.65;7.28;;;;;;;0.45;68.01;93689.13;4911689;29;20196;-75
2021/01/27 07:30:12;;;;;;;12.90;7.03;;;;;;;0.36;66.48;93693.63;4932780;29;20675;-74
2021/01/27 07:32:59;;;;;;;10.35;6.50;;;;;;;0.31;68.45;93694.56;4920761;29;20197;-75
2021/01/27 07:35:45;;;;;;;14.88;7.60;;;;;;;0.47;67.65;93693.00;4913121;29;20220;-75
2021/01/27 07:38:18;;;;;;;11.40;6.68;;;;;;;0.46;67.41;93686.22;4938767;29;20322;-74
2021/01/27 07:40:50;;;;;;;10.27;6.13;;;;;;;0.15;67.46;93686.34;4967441;28;20279;-74
2021/01/27 07:43:21;;;;;;;11.27;7.07;;;;;;;0.16;67.05;93695.78;4992477;28;20177;-77
2021/01/27 07:45:53;;;;;;;11.85;7.15;;;;;;;0.32;68.01;93672.47;4991116;28;20177;-74
2021/01/27 07:48:34;;;;;;;11.98;7.18;;;;;;;0.48;67.10;93680.63;4992454;28;20216;-74
2021/01/27 07:51:16;;;;;;;13.15;7.03;;;;;;;0.66;66.69;93689.28;5010620;28;20196;-75
2021/01/27 07:54:01;;;;;;;12.05;7.35;;;;;;;0.41;68.06;93682.97;5037241;28;20190;-74
2021/01/27 07:56:36;;;;;;;12.38;7.15;;;;;;;0.43;66.50;93691.31;5104271;28;20194;-74
2021/01/27 07:59:22;;;;;;;10.38;6.55;;;;;;;0.48;67.76;93688.53;5094169;28;20173;-73
2021/01/27 08:01:58;;;;;;;12.90;6.65;;;;;;;0.61;67.65;93684.94;5109938;28;20392;-75
2021/01/27 08:04:34;;;;;;;9.20;5.57;;;;;;;0.37;66.79;93695.16;5093663;28;20173;-74
2021/01/27 08:06:59;;;;;;;13.20;6.93;;;;;;;0.13;68.04;93680.66;5095536;28;20165;-74
2021/01/27 08:09:34;;;;;;;11.57;6.57;;;;;;;0.37;68.18;93695.16;5090221;28;20705;-74
2021/01/27 08:12:30;;;;;;;11.35;6.97;;;;;;;0.40;67.56;93689.31;5091404;28;20622;-74
2021/01/27 08:15:03;;;;;;;10.85;6.50;;;;;;;0.58;65.47;93697.94;5075957;28;20610;-74
2021/01/27 08:17:59;;;;;;;13.27;7.13;;;;;;;0.66;66.64;93695.28;5112048;28;20633;-73
2021/01/27 08:20:31;;;;;;;11.70;6.70;;;;;;;0.84;66.88;93696.03;5096917;28;20223;-74
2021/01/27 08:22:58;;;;;;;13.18;7.50;;;;;;;0.86;66.79;93690.47;5111901;28;20705;-75
2021/01/27 08:25:51;;;;;;;12.10;6.97;;;;;;;0.64;66.36;93694.84;5110649;28;20178;-74
2021/01/27 08:28:24;;;;;;;13.00;6.45;;;;;;;0.62;67.89;93690.97;5111764;28;20182;-75
2021/01/27 08:31:08;;;;;;;11.05;6.72;;;;;;;0.58;66.49;93690.84;5111567;28;20196;-74
2021/01/27 08:33:54;;;;;;;11.95;6.88;;;;;;;0.97;65.69;93695.09;5120418;28;20241;-74
2021/01/27 08:36:29;;;;;;;10.60;5.93;;;;;;;1.05;65.07;93694.28;5132849;27;20245;-74
2021/01/27 08:38:57;;;;;;;9.68;5.85;;;;;;;0.79;64.82;93691.72;5150020;27;20260;-74
2021/01/27 08:41:53;;;;;;;13.20;7.15;;;;;;;0.78;66.77;93694.66;5157552;27;20168;-73
2021/01/27 08:44:21;;;;;;;12.75;6.70;;;;;;;0.85;67.36;93689.72;5157255;27;20229;-74
2021/01/27 08:46:56;;;;;;;12.32;6.82;;;;;;;0.91;67.49;93682.44;5157259;27;20244;-74
2021/01/27 08:49:37;;;;;;;10.35;6.60;;;;;;;0.94;66.37;93687.06;5157207;27;20174;-73
2021/01/27 08:52:08;;;;;;;12.88;7.15;;;;;;;1.08;66.13;93687.66;5138590;27;20172;-73
2021/01/27 08:54:37;;;;;;;12.32;7.28;;;;;;;1.00;64.75;93685.78;5157044;27;20179;-75
2021/01/27 08:57:27;;;;;;;12.32;7.05;;;;;;;0.97;66.07;93676.69;5156868;27;20233;-74
2021/01/27 09:00:12;;;;;;;13.77;6.18;;;;;;;0.92;65.96;93692.63;5157086;27;20172;-74
2021/01/27 09:02:55;;;;;;;11.02;6.90;;;;;;;1.03;65.42;93687.81;5156062;27;20200;-74
2021/01/27 09:05:24;;;;;;;9.90;6.05;;;;;;;1.05;65.44;93691.66;5138500;27;20232;-74
2021/01/27 09:07:58;;;;;;;10.48;6.30;;;;;;;1.09;66.61;93691.81;5156932;27;20175;-74
2021/01/27 09:10:41;;;;;;;10.43;6.30;;;;;;;1.38;65.68;93698.97;5138245;27;20232;-74
2021/01/27 09:13:28;;;;;;;9.93;6.40;;;;;;;1.29;64.83;93698.22;5156985;27;20166;-75
2021/01/27 09:16:21;;;;;;;11.18;6.38;;;;;;;1.27;64.81;93695.94;5156544;27;20210;-74
2021/01/27 09:19:20;;;;;;;11.30;6.35;;;;;;;0.94;64.66;93694.94;5155077;27;20176;-74
2021/01/27 09:22:12;;;;;;;11.75;6.28;;;;;;;1.07;67.33;93704.50;5075774;28;20190;-75
2021/01/27 09:24:47;;;;;;;11.82;6.72;;;;;;;1.18;66.78;93707.53;5093080;28;20270;-75
2021/01/27 09:27:34;;;;;;;9.90;6.38;;;;;;;1.13;67.97;93713.78;5056185;28;20235;-75
2021/01/27 09:30:07;;;;;;;12.10;6.75;;;;;;;1.33;67.04;93725.44;5072167;28;20201;-76
2021/01/27 09:32:33;;;;;;;9.75;6.10;;;;;;;1.26;65.74;93720.69;5092550;28;20251;-75
2021/01/27 09:35:15;;;;;;;10.57;6.10;;;;;;;1.35;65.17;93731.19;5092612;28;20205;-75
2021/01/27 09:38:04;;;;;;;8.35;6.03;;;;;;;1.22;65.65;93719.00;5092528;28;20214;-76
2021/01/27 09:40:52;;;;;;;9.38;5.63;;;;;;;1.24;65.33;93730.75;5075559;28;20639;-75
2021/01/27 09:43:18;;;;;;;10.68;5.88;;;;;;;1.20;66.13;93742.22;5059242;28;20178;-76
2021/01/27 09:45:46;;;;;;;8.32;5.82;;;;;;;0.78;65.39;93752.47;5075880;28;20178;-75
2021/01/27 09:48:12;;;;;;;14.40;6.38;;;;;;;1.01;66.05;93742.53;5091512;28;20265;-75
2021/01/27 09:50:38;;;;;;;9.80;5.93;;;;;;;0.96;66.44;93737.47;5092082;28;20706;-75
2021/01/27 09:53:05;;;;;;;8.27;5.93;;;;;;;0.77;67.65;93741.19;5058844;28;20562;-75
2021/01/27 09:55:31;;;;;;;9.70;5.72;;;;;;;0.59;66.20;93747.53;5058102;28;20760;-75
2021/01/27 09:57:57;;;;;;;7.55;5.57;;;;;;;0.63;68.26;93739.81;5107151;27;20181;-75
2021/01/27 10:00:30;;;;;;;10.30;5.30;;;;;;;0.71;68.95;93747.69;5116908;27;20672;-76
2021/01/27 10:02:56;;;;;;;10.70;6.38;;;;;;;0.87;67.63;93736.69;5134284;27;20645;-76
2021/01/27 10:05:51;;;;;;;7.00;5.20;;;;;;;0.76;66.82;93736.25;5134953;27;20216;-75
2021/01/27 10:08:24;;;;;;;7.93;6.00;;;;;;;0.98;68.03;93732.66;5116119;27;20253;-75
2021/01/27 10:11:12;;;;;;;10.10;6.43;;;;;;;0.96;67.80;93729.59;5133993;27;20211;-75
2021/01/27 10:13:39;;;;;;;11.73;6.07;;;;;;;1.03;67.22;93724.63;5133825;27;20216;-75
2021/01/27 10:16:09;;;;;;;8.23;5.20;;;;;;;1.03;68.05;93720.13;5133776;27;20257;-74
2021/01/27 10:18:35;;;;;;;8.32;5.25;;;;;;;0.91;67.02;93729.75;5133736;27;20280;-75
2021/01/27 10:21:05;;;;;;;10.07;6.17;;;;;;;0.88;66.81;93731.13;5116794;27;20176;-74
2021/01/27 10:23:45;;;;;;;10.07;5.65;;;;;;;0.75;67.02;93713.69;5116899;27;20184;-75
2021/01/27 10:26:29;;;;;;;9.35;6.15;;;;;;;0.84;68.30;93726.78;5134833;27;20213;-75
2021/01/27 10:29:16;;;;;;;10.40;6.25;;;;;;;1.05;66.54;93736.34;5134485;27;20691;-75
2021/01/27 10:31:47;;;;;;;10.05;5.90;;;;;;;0.92;66.90;93732.06;5134751;27;20627;-74
2021/01/27 10:34:37;;;;;;;9.30;6.05;;;;;;;1.15;66.25;93729.22;5115940;27;20181;-75
2021/01/27 10:37:04;;;;;;;10.07;5.85;;;;;;;1.05;67.12;93722.44;5134304;27;20173;-74
2021/01/27 10:39:32;;;;;;;10.30;6.07;;;;;;;1.19;66.88;93723.03;5152754;27;20220;-74
2021/01/27 10:42:04;;;;;;;9.98;6.63;;;;;;;1.30;66.98;93721.59;5153808;27;20176;-77
2021/01/27 10:44:35;;;;;;;9.38;6.72;;;;;;;0.96;67.56;93705.94;5155356;27;20190;-77
2021/01/27 10:47:07;;;;;;;7.65;5.93;;;;;;;1.24;67.46;93722.09;5154647;27;20176;-76
2021/01/27 10:49:35;;;;;;;9.35;5.82;;;;;;;1.18;67.17;93708.34;5154841;27;20194;-78
2021/01/27 10:52:04;;;;;;;10.07;6.00;;;;;;;1.18;65.93;93721.50;5136603;27;20203;-78
2021/01/27 10:54:30;;;;;;;9.15;6.03;;;;;;;1.31;65.92;93722.38;5153718;27;20275;-77
2021/01/27 10:56:55;;;;;;;11.07;6.33;;;;;;;1.21;66.69;93726.09;5136487;27;20196;-78
2021/01/27 10:59:21;;;;;;;10.57;6.67;;;;;;;1.16;66.59;93715.75;5154817;27;20168;-77
2021/01/27 11:01:46;;;;;;;9.47;6.27;;;;;;;1.40;66.31;93728.34;5155344;27;20195;-76
2021/01/27 11:04:12;;;;;;;13.43;6.27;;;;;;;1.31;67.65;93723.16;5136083;27;20195;-78
2021/01/27 11:06:41;;;;;;;6.80;5.43;;;;;;;1.31;65.68;93725.78;5155242;27;20169;-77
2021/01/27 11:09:06;;;;;;;8.90;6.03;;;;;;;1.47;66.07;93725.25;5136913;27;20329;-77
2021/01/27 11:11:32;;;;;;;11.27;6.97;;;;;;;1.49;66.66;93723.84;5153467;27;20172;-79
2021/01/27 11:13:57;;;;;;;8.07;6.43;;;;;;;1.42;67.67;93734.09;5154189;27;20229;-79
2021/01/27 11:16:23;;;;;;;10.73;6.13;;;;;;;1.49;67.39;93744.13;5154820;27;20196;-76
2021/01/27 11:18:49;;;;;;;16.00;6.27;;;;;;;1.50;67.27;93732.50;5136295;27;20613;-78
2021/01/27 11:21:14;;;;;;;10.83;6.63;;;;;;;1.47;67.55;93738.41;5154812;27;20648;-78
2021/01/27 11:23:40;;;;;;;9.53;6.23;;;;;;;1.57;66.93;93736.22;5154906;27;20255;-75
2021/01/27 11:26:05;;;;;;;11.17;6.30;;;;;;;1.51;65.84;93737.44;5155163;27;20164;-78
2021/01/27 11:28:31;;;;;;;11.40;6.60;;;;;;;1.46;67.42;93721.88;5136443;27;20613;-78
2021/01/27 11:30:57;;;;;;;9.95;5.85;;;;;;;1.45;65.99;93728.19;5155365;27;20263;-79
2021/01/27 11:33:25;;;;;;;10.77;7.23;;;;;;;1.54;67.70;93721.03;5154682;27;20252;-79
2021/01/27 11:35:52;;;;;;;9.02;6.35;;;;;;;1.49;64.71;93723.06;5154447;27;20184;-78
2021/01/27 11:38:18;;;;;;;11.68;6.75;;;;;;;1.34;65.04;93708.56;5155685;27;20302;-78
2021/01/27 11:40:43;;;;;;;10.23;6.57;;;;;;;1.22;66.48;93717.13;5156253;27;20200;-77
2021/01/27 11:43:09;;;;;;;12.40;6.33;;;;;;;1.16;66.46;93699.22;5155688;27;20645;-78
2021/01/27 11:45:34;;;;;;;8.57;5.87;;;;;;;1.42;65.71;93728.06;5152734;27;20183;-79
2021/01/27 11:48:00;;;;;;;10.07;6.93;;;;;;;1.34;66.38;93721.72;5154171;27;20170;-77
2021/01/27 11:50:27;;;;;;;12.27;7.37;;;;;;;1.27;67.28;93724.09;5154516;27;20176;-78
2021/01/27 11:52:52;;;;;;;10.70;6.50;;;;;;;1.29;68.31;93714.00;5154566;27;20164;-78
2021/01/27 11:55:19;;;;;;;8.77;6.27;;;;;;;1.49;67.17;93704.66;5153741;27;20196;-78
2021/01/27 11:57:44;;;;;;;16.67;7.50;;;;;;;1.58;67.49;93713.31;5150782;27;20315;-79
2021/01/27 12:00:11;;;;;;;9.80;7.03;;;;;;;1.50;66.15;93706.97;5141754;27;20200;-77
2021/01/27 12:02:36;;;;;;;10.27;6.65;;;;;;;1.40;65.56;93693.41;5138675;27;20649;-78
2021/01/27 12:05:02;;;;;;;12.03;7.07;;;;;;;1.61;67.71;93712.66;5132907;27;20168;-77